Portada
METAR-TAF:

METAR-TAF

Aeroports :

Aeroport

Maraix, Turquia

latitud: 37-32-20N, longitud: 036-57-12E, altitud: 525 m

Observació

L'informe es va fer fa 1 hora i 11 minuts, a les 12:50 UTC
Vent 8 kt del Oest, variant entre Sud-Oest i Nord-Oest
Temperatura 35°C
Humitat 16%
Pressió 1007 hPa
Visibilitat 10 km o més
sense núvols per sota de 1500 mi sense presència de cumulonimbus.

METAR: LTCN 021250Z 28008KT 220V320 CAVOK 35/05 Q1007 NOSIG

Hora: 17:01 (14:01 UTC)

Pronòstic

L'informe es va fer fa 3 hores i 21 minuts, a les 10:40 UTC
Pronòstic vàlid del 02 a les 12 UTC al 02 a les 21 UTC
Vent 15 kt del Oest/Nord-Oest
Visibilitat 10 km o més
sense núvols per sota de 1500 mi sense presència de cumulonimbus.

TAF: LTCN 021040Z 0212/0221 29015KT CAVOK

Observacions i pronòstics meteorològics de més de 4000 aeroports (METAR i TAF).

Les estacions disponibles són els punts grocs i vermells al mapa.

Posi el ratolí al punt desitjat per veure el nom de l'estació.

Feu clic per veure les observacions i els pronòstics meteorològics.

Per canviar el mapa: feu clic els botons verds amb una creu de color negre per apropar; al botó verd amb un guió per allunyar la imatge; o en les fletxes verdes per a mapes adjacents.


METAR-TAF: